createdAt,value
2019-05-22T00:01:25.653Z,13.20
2019-05-22T00:04:00.964Z,13.23
2019-05-22T00:06:36.845Z,13.30
2019-05-22T00:09:11.059Z,13.17
2019-05-22T00:11:44.448Z,13.21
2019-05-22T00:14:15.774Z,13.31
2019-05-22T00:16:47.106Z,13.20
2019-05-22T00:19:18.949Z,13.23
2019-05-22T00:21:51.444Z,13.27
2019-05-22T00:24:25.465Z,13.21
2019-05-22T00:26:55.819Z,13.14
2019-05-22T00:29:25.449Z,13.17
2019-05-22T00:31:56.280Z,13.14
2019-05-22T00:34:26.512Z,13.14
2019-05-22T00:36:59.042Z,13.20
2019-05-22T00:39:30.873Z,13.18
2019-05-22T00:42:01.180Z,13.15
2019-05-22T00:44:35.217Z,13.05
2019-05-22T00:47:14.157Z,13.02
2019-05-22T00:49:46.627Z,13.07
2019-05-22T00:52:42.872Z,13.05
2019-05-22T00:55:30.022Z,13.20
2019-05-22T00:58:11.328Z,13.10
2019-05-22T01:00:50.833Z,12.94
2019-05-22T01:03:24.735Z,12.88
2019-05-22T01:05:55.082Z,12.91
2019-05-22T01:08:28.470Z,13.01
2019-05-22T01:11:00.627Z,12.94
2019-05-22T01:13:33.167Z,12.97
2019-05-22T01:16:03.252Z,13.02
2019-05-22T01:18:33.034Z,12.92
2019-05-22T01:21:04.741Z,12.89
2019-05-22T01:23:39.099Z,12.84
2019-05-22T01:26:11.519Z,12.98
2019-05-22T01:28:41.061Z,12.77
2019-05-22T01:31:15.594Z,12.86
2019-05-22T01:33:54.745Z,12.80
2019-05-22T01:36:26.836Z,12.75
2019-05-22T01:39:03.593Z,12.67
2019-05-22T01:41:34.169Z,12.81
2019-05-22T01:44:07.048Z,12.84
2019-05-22T01:46:40.109Z,12.77
2019-05-22T01:49:13.354Z,12.72
2019-05-22T01:51:43.040Z,12.77
2019-05-22T01:54:12.777Z,12.81
2019-05-22T01:56:42.992Z,12.92
2019-05-22T01:59:13.819Z,12.88
2019-05-22T02:01:45.381Z,12.81
2019-05-22T02:04:16.913Z,12.77
2019-05-22T02:06:48.162Z,12.69
2019-05-22T02:09:28.872Z,12.79
2019-05-22T02:12:07.738Z,12.84
2019-05-22T02:14:41.471Z,12.83
2019-05-22T02:17:12.199Z,12.81
2019-05-22T02:19:42.090Z,12.75
2019-05-22T02:22:13.218Z,12.74
2019-05-22T02:24:42.684Z,12.71
2019-05-22T02:27:13.921Z,12.74
2019-05-22T02:29:44.829Z,12.60
2019-05-22T02:32:14.856Z,12.58
2019-05-22T02:34:44.974Z,12.62
2019-05-22T02:37:16.334Z,12.70
2019-05-22T02:39:47.371Z,12.67
2019-05-22T02:42:23.776Z,12.72
2019-05-22T02:44:53.328Z,12.61
2019-05-22T02:47:23.838Z,12.64
2019-05-22T02:49:56.117Z,12.64
2019-05-22T02:52:27.306Z,12.57
2019-05-22T02:54:57.100Z,12.64
2019-05-22T02:57:28.387Z,12.66
2019-05-22T02:59:59.206Z,12.55
2019-05-22T03:02:30.339Z,12.59
2019-05-22T03:05:11.695Z,12.38
2019-05-22T03:07:41.786Z,12.43
2019-05-22T03:10:16.234Z,12.50
2019-05-22T03:12:46.518Z,12.47
2019-05-22T03:15:18.082Z,12.35
2019-05-22T03:17:53.506Z,12.41
2019-05-22T03:20:24.265Z,12.37
2019-05-22T03:23:14.571Z,12.23
2019-05-22T03:25:44.703Z,12.28
2019-05-22T03:28:15.157Z,12.01
2019-05-22T03:30:45.491Z,12.10
2019-05-22T03:33:16.719Z,11.99
2019-05-22T03:35:48.623Z,11.82
2019-05-22T03:38:20.639Z,11.97
2019-05-22T03:40:52.487Z,11.96
2019-05-22T03:43:23.824Z,11.83
2019-05-22T03:45:56.466Z,11.92
2019-05-22T03:48:28.409Z,11.96
2019-05-22T03:51:07.129Z,11.89
2019-05-22T03:53:36.801Z,12.07
2019-05-22T03:56:06.363Z,12.02
2019-05-22T03:58:36.409Z,12.03
2019-05-22T04:01:06.890Z,12.10
2019-05-22T04:03:36.346Z,12.03
2019-05-22T04:06:07.100Z,12.05
2019-05-22T04:08:37.667Z,12.10
2019-05-22T04:11:08.843Z,12.00
2019-05-22T04:13:38.910Z,12.04
2019-05-22T04:16:10.587Z,12.17
2019-05-22T04:18:40.864Z,12.10
2019-05-22T04:21:10.300Z,12.16
2019-05-22T04:23:40.076Z,12.18
2019-05-22T04:26:12.854Z,11.98
2019-05-22T04:28:51.139Z,12.09
2019-05-22T04:31:31.666Z,11.93
2019-05-22T04:34:01.655Z,11.84
2019-05-22T04:36:31.055Z,11.81
2019-05-22T04:39:02.322Z,11.86
2019-05-22T04:41:32.601Z,11.83
2019-05-22T04:44:01.985Z,11.88
2019-05-22T04:46:31.651Z,11.89
2019-05-22T04:49:01.071Z,11.88
2019-05-22T04:51:31.200Z,12.04
2019-05-22T04:54:00.695Z,11.93
2019-05-22T04:56:30.824Z,11.96
2019-05-22T04:59:02.235Z,12.03
2019-05-22T05:01:32.520Z,12.12
2019-05-22T05:04:03.103Z,12.05
2019-05-22T05:06:35.879Z,12.04
2019-05-22T05:09:10.694Z,11.99
2019-05-22T05:11:40.590Z,12.06
2019-05-22T05:14:10.122Z,12.02
2019-05-22T05:16:39.999Z,12.08
2019-05-22T05:19:09.715Z,12.16
2019-05-22T05:21:39.890Z,12.13
2019-05-22T05:24:09.762Z,12.21
2019-05-22T05:26:39.407Z,12.26
2019-05-22T05:29:27.931Z,12.34
2019-05-22T05:31:59.098Z,12.37
2019-05-22T05:34:52.137Z,12.40
2019-05-22T05:37:23.705Z,12.38
2019-05-22T05:40:43.243Z,12.30
2019-05-22T05:43:17.671Z,12.29
2019-05-22T05:45:49.854Z,12.34
2019-05-22T05:48:31.534Z,12.27
2019-05-22T05:51:39.396Z,12.39
2019-05-22T05:54:20.573Z,12.40
2019-05-22T05:56:51.272Z,12.34
2019-05-22T05:59:25.029Z,12.46
2019-05-22T06:01:58.033Z,12.59
2019-05-22T06:04:37.193Z,12.69
2019-05-22T06:07:26.473Z,12.82
2019-05-22T06:10:33.010Z,13.00
2019-05-22T06:13:04.544Z,13.13
2019-05-22T06:16:00.609Z,13.26
2019-05-22T06:18:35.754Z,13.33
2019-05-22T06:21:07.506Z,13.51
2019-05-22T06:24:14.315Z,13.52
2019-05-22T06:26:54.809Z,13.48
2019-05-22T06:29:28.251Z,13.27
2019-05-22T06:32:43.329Z,13.24
2019-05-22T06:35:13.173Z,12.96
2019-05-22T06:37:51.463Z,12.85
2019-05-22T06:40:21.322Z,13.00
2019-05-22T06:43:25.818Z,12.83
2019-05-22T06:45:55.529Z,12.80
2019-05-22T06:48:24.989Z,12.58
2019-05-22T06:50:54.544Z,12.52
2019-05-22T06:53:24.087Z,12.48
2019-05-22T06:55:53.509Z,12.44
2019-05-22T06:58:22.940Z,12.42
2019-05-22T07:00:52.599Z,12.25
2019-05-22T07:03:22.242Z,12.24
2019-05-22T07:05:53.525Z,12.32
2019-05-22T07:08:23.508Z,12.22
2019-05-22T07:10:53.478Z,12.18
2019-05-22T07:13:23.001Z,12.17
2019-05-22T07:15:53.965Z,12.15
2019-05-22T07:18:26.737Z,12.19
2019-05-22T07:20:58.199Z,12.30
2019-05-22T07:23:29.672Z,12.44
2019-05-22T07:26:00.951Z,12.49
2019-05-22T07:28:31.471Z,12.52
2019-05-22T07:31:01.375Z,12.61
2019-05-22T07:33:30.828Z,12.70
2019-05-22T07:36:17.213Z,12.80
2019-05-22T07:38:33.529Z,12.76
2019-05-22T07:41:03.996Z,12.77
2019-05-22T07:43:33.941Z,12.87
2019-05-22T07:46:03.678Z,12.92
2019-05-22T07:48:33.378Z,13.03
2019-05-22T07:51:03.570Z,12.95
2019-05-22T07:53:33.169Z,12.97
2019-05-22T07:56:06.101Z,13.06
2019-05-22T07:58:36.166Z,13.29
2019-05-22T08:01:06.580Z,13.46
2019-05-22T08:03:37.180Z,13.63
2019-05-22T08:06:06.942Z,13.86
2019-05-22T08:08:37.238Z,14.17
2019-05-22T08:11:07.791Z,14.20
2019-05-22T08:13:37.974Z,14.29
2019-05-22T08:16:08.514Z,14.67
2019-05-22T08:18:39.473Z,14.85
2019-05-22T08:21:09.232Z,14.81
2019-05-22T08:23:38.984Z,14.90
2019-05-22T08:26:10.786Z,14.87
2019-05-22T08:28:41.170Z,14.74
2019-05-22T08:31:12.878Z,14.55
2019-05-22T08:33:42.846Z,14.45
2019-05-22T08:36:12.365Z,14.37
2019-05-22T08:38:42.802Z,14.36
2019-05-22T08:41:14.552Z,14.41
2019-05-22T08:44:15.457Z,14.58
2019-05-22T08:46:18.353Z,14.53
2019-05-22T08:48:49.285Z,14.34
2019-05-22T08:51:19.032Z,14.42
2019-05-22T08:53:49.118Z,14.63
2019-05-22T08:56:19.937Z,14.61
2019-05-22T08:58:50.235Z,14.63
2019-05-22T09:01:19.883Z,14.80
2019-05-22T09:03:49.768Z,15.07
2019-05-22T09:06:19.498Z,15.08
2019-05-22T09:08:48.937Z,14.98
2019-05-22T09:11:18.394Z,14.82
2019-05-22T09:13:47.952Z,14.73
2019-05-22T09:16:18.543Z,14.63
2019-05-22T09:18:48.324Z,14.57
2019-05-22T09:21:18.271Z,14.94
2019-05-22T09:23:48.129Z,15.09
2019-05-22T09:26:18.473Z,15.04
2019-05-22T09:28:48.403Z,14.98
2019-05-22T09:31:18.749Z,14.93
2019-05-22T09:33:48.230Z,14.86
2019-05-22T09:36:17.807Z,14.68
2019-05-22T09:38:47.508Z,14.95
2019-05-22T09:41:17.229Z,15.43
2019-05-22T09:43:57.154Z,15.62
2019-05-22T09:46:26.607Z,15.78
2019-05-22T09:48:56.858Z,15.65
2019-05-22T09:51:26.423Z,16.04
2019-05-22T09:53:56.989Z,16.37
2019-05-22T09:56:27.210Z,16.61
2019-05-22T09:58:56.634Z,16.76
2019-05-22T10:01:26.198Z,17.11
2019-05-22T10:03:55.749Z,17.00
2019-05-22T10:06:25.332Z,16.78
2019-05-22T10:08:54.781Z,16.77
2019-05-22T10:11:24.560Z,17.51
2019-05-22T10:13:54.033Z,17.74
2019-05-22T10:16:23.479Z,17.88
2019-05-22T10:18:53.709Z,18.31
2019-05-22T10:21:23.541Z,18.61
2019-05-22T10:23:53.196Z,18.32
2019-05-22T10:26:23.253Z,17.79
2019-05-22T10:28:53.107Z,17.32
2019-05-22T10:31:23.320Z,17.37
2019-05-22T10:33:52.699Z,17.08
2019-05-22T10:36:22.805Z,16.66
2019-05-22T10:38:52.199Z,16.74
2019-05-22T10:41:22.247Z,16.47
2019-05-22T10:43:52.048Z,16.98
2019-05-22T10:46:22.199Z,17.05
2019-05-22T10:48:51.609Z,17.04
2019-05-22T10:51:21.403Z,17.20
2019-05-22T10:53:50.963Z,17.21
2019-05-22T10:56:20.388Z,17.46
2019-05-22T10:58:49.801Z,18.15
2019-05-22T11:01:19.357Z,18.43
2019-05-22T11:03:48.789Z,18.21
2019-05-22T11:06:18.529Z,17.82
2019-05-22T11:08:48.068Z,17.57
2019-05-22T11:11:17.843Z,17.60
2019-05-22T11:14:00.665Z,18.08
2019-05-22T11:16:19.127Z,18.52
2019-05-22T11:18:51.281Z,18.42
2019-05-22T11:21:20.231Z,18.33
2019-05-22T11:23:52.404Z,18.58
2019-05-22T11:26:20.070Z,18.99
2019-05-22T11:28:52.025Z,19.03
2019-05-22T11:31:24.401Z,19.45
2019-05-22T11:33:53.079Z,19.44
2019-05-22T11:36:25.554Z,19.15
2019-05-22T12:14:07.835Z,22.66
2019-05-22T12:16:36.776Z,23.32
2019-05-22T12:19:06.126Z,24.40
2019-05-22T12:21:35.051Z,25.28
2019-05-22T12:24:03.758Z,24.42
2019-05-22T12:26:32.758Z,22.75
2019-05-22T12:29:01.917Z,22.94
2019-05-22T12:31:32.711Z,23.74
2019-05-22T12:34:01.929Z,24.19
2019-05-22T12:36:30.616Z,25.12
2019-05-22T12:38:59.920Z,26.69
2019-05-22T12:41:28.994Z,27.51
2019-05-22T12:43:57.710Z,27.75
2019-05-22T12:46:28.358Z,25.32
2019-05-22T12:48:57.631Z,23.59
2019-05-22T12:51:27.309Z,22.93
2019-05-22T12:53:56.232Z,23.09
2019-05-22T12:56:26.071Z,23.82
2019-05-22T12:58:56.658Z,25.13
2019-05-22T13:01:26.077Z,25.38
2019-05-22T13:03:56.948Z,24.96
2019-05-22T13:06:26.011Z,25.89
2019-05-22T13:08:54.738Z,26.08
2019-05-22T13:11:23.993Z,24.96
2019-05-22T13:13:52.657Z,25.20
2019-05-22T13:16:21.886Z,25.55
2019-05-22T13:18:51.387Z,25.71
2019-05-22T13:21:22.399Z,25.34
2019-05-22T13:23:52.426Z,27.64
2019-05-22T13:26:22.164Z,27.17
2019-05-22T13:28:50.920Z,28.01
2019-05-22T13:31:19.859Z,28.69
2019-05-22T13:33:48.666Z,29.53
2019-05-22T13:36:19.039Z,29.83
2019-05-22T13:38:48.386Z,28.48
2019-05-22T13:41:17.278Z,27.20
2019-05-22T13:43:46.489Z,26.23
2019-05-22T13:46:15.941Z,24.53
2019-05-22T13:48:44.913Z,23.44
2019-05-22T13:51:15.136Z,24.02
2019-05-22T13:53:44.506Z,25.49
2019-05-22T13:56:13.281Z,26.78
2019-05-22T13:58:43.171Z,28.27
2019-05-22T14:01:12.560Z,29.23
2019-05-22T14:03:41.494Z,29.56
2019-05-22T14:06:10.373Z,30.03
2019-05-22T14:08:39.080Z,27.93
2019-05-22T14:11:08.685Z,26.45
2019-05-22T14:13:38.355Z,26.37
2019-05-22T14:16:07.343Z,28.26
2019-05-22T14:18:36.169Z,29.71
2019-05-22T14:21:05.107Z,30.36
2019-05-22T14:23:33.987Z,32.33
2019-05-22T14:26:02.854Z,32.18
2019-05-22T14:28:33.184Z,32.03
2019-05-22T14:31:01.917Z,29.15
2019-05-22T14:33:30.840Z,25.93
2019-05-22T14:35:59.614Z,26.11
2019-05-22T14:38:29.222Z,26.07
2019-05-22T14:40:58.056Z,25.56
2019-05-22T14:43:26.787Z,25.43
2019-05-22T14:45:55.501Z,26.31
2019-05-22T14:48:24.878Z,28.80
2019-05-22T14:50:53.561Z,30.67
2019-05-22T14:53:22.452Z,30.91
2019-05-22T14:55:52.114Z,31.59
2019-05-22T14:58:20.842Z,29.75
2019-05-22T15:00:49.783Z,27.08
2019-05-22T15:03:18.683Z,24.14
2019-05-22T15:05:47.519Z,22.77
2019-05-22T15:08:16.247Z,22.12
2019-05-22T15:10:45.701Z,21.81
2019-05-22T15:13:14.676Z,22.63
2019-05-22T15:15:43.801Z,24.94
2019-05-22T15:18:12.734Z,26.39
2019-05-22T15:21:01.417Z,27.93
2019-05-22T15:23:31.299Z,29.01
2019-05-22T15:26:00.739Z,29.68
2019-05-22T15:28:29.643Z,28.55
2019-05-22T15:30:58.385Z,28.67
2019-05-22T15:33:27.877Z,29.99
2019-05-22T15:35:56.940Z,30.31
2019-05-22T15:38:30.234Z,29.56
2019-05-22T15:40:59.068Z,28.84
2019-05-22T15:43:27.961Z,27.21
2019-05-22T15:45:58.591Z,25.98
2019-05-22T15:48:30.098Z,25.77
2019-05-22T15:51:02.522Z,25.61
2019-05-22T15:53:31.779Z,26.44
2019-05-22T15:56:02.388Z,26.24
2019-05-22T15:58:32.954Z,27.80
2019-05-22T16:01:02.747Z,29.33
2019-05-22T16:03:31.957Z,30.08
2019-05-22T16:06:00.662Z,30.67
2019-05-22T16:08:30.164Z,31.06
2019-05-22T16:11:00.799Z,32.10
2019-05-22T16:13:31.647Z,31.91
2019-05-22T16:16:00.951Z,31.79
2019-05-22T16:18:31.930Z,31.53
2019-05-22T16:21:02.573Z,31.84
2019-05-22T16:23:32.628Z,31.47
2019-05-22T16:26:02.977Z,31.02
2019-05-22T16:28:35.895Z,31.25
2019-05-22T16:31:02.943Z,31.29
2019-05-22T16:33:32.099Z,30.65
2019-05-22T16:36:01.287Z,30.76
2019-05-22T16:38:30.199Z,30.16
2019-05-22T16:40:58.891Z,29.12
2019-05-22T16:43:47.258Z,28.93
2019-05-22T16:45:59.234Z,28.26
2019-05-22T16:48:29.641Z,27.46
2019-05-22T16:50:58.700Z,26.52
2019-05-22T16:53:27.515Z,25.72
2019-05-22T16:55:57.471Z,25.61
2019-05-22T16:58:26.734Z,25.65
2019-05-22T17:00:56.783Z,26.32
2019-05-22T17:03:26.775Z,26.87
2019-05-22T17:05:55.443Z,26.51
2019-05-22T17:08:24.174Z,23.38
2019-05-22T17:10:52.902Z,22.75
2019-05-22T17:13:22.067Z,23.01
2019-05-22T17:15:51.188Z,23.83
2019-05-22T17:18:19.945Z,24.37
2019-05-22T17:20:48.959Z,23.67
2019-05-22T17:23:17.573Z,24.09
2019-05-22T17:25:46.511Z,24.15
2019-05-22T17:28:17.019Z,23.96
2019-05-22T17:30:46.821Z,23.45
2019-05-22T17:33:15.786Z,22.98
2019-05-22T17:35:44.792Z,22.85
2019-05-22T17:38:13.862Z,22.70
2019-05-22T17:40:42.754Z,22.35
2019-05-22T17:43:12.070Z,22.68
2019-05-22T17:45:41.699Z,22.77
2019-05-22T17:48:11.778Z,22.43
2019-05-22T17:50:41.480Z,21.86
2019-05-22T17:53:10.348Z,21.36
2019-05-22T17:55:39.251Z,20.70
2019-05-22T17:58:08.771Z,20.54
2019-05-22T18:00:40.790Z,20.67
2019-05-22T18:03:10.043Z,20.48
2019-05-22T18:05:39.672Z,20.11
2019-05-22T18:08:09.454Z,19.88
2019-05-22T18:10:40.877Z,20.09
2019-05-22T18:13:10.799Z,20.55
2019-05-22T18:15:39.426Z,21.10
2019-05-22T18:18:09.423Z,21.31
2019-05-22T18:20:43.427Z,21.10
2019-05-22T18:23:09.277Z,20.64
2019-05-22T18:25:38.042Z,20.30
2019-05-22T18:28:07.571Z,20.07
2019-05-22T18:30:38.008Z,19.95
2019-05-22T18:33:07.584Z,19.88
2019-05-22T18:35:36.271Z,19.64
2019-05-22T18:38:05.319Z,19.27
2019-05-22T18:40:34.196Z,18.92
2019-05-22T18:43:03.012Z,18.54
2019-05-22T18:45:33.538Z,18.17
2019-05-22T18:48:02.632Z,17.76
2019-05-22T18:50:32.980Z,17.42
2019-05-22T18:53:02.380Z,17.22
2019-05-22T18:55:31.318Z,16.91
2019-05-22T18:58:00.193Z,16.61
2019-05-22T19:00:30.398Z,16.40
2019-05-22T19:02:59.086Z,16.11
2019-05-22T19:05:29.484Z,15.78
2019-05-22T19:07:58.566Z,15.39
2019-05-22T19:10:27.704Z,14.94
2019-05-22T19:12:56.618Z,14.64
2019-05-22T19:15:25.693Z,14.51
2019-05-22T19:17:54.525Z,14.44
2019-05-22T19:20:23.448Z,14.42
2019-05-22T19:23:00.442Z,14.49
2019-05-22T19:25:22.616Z,14.48
2019-05-22T19:27:51.491Z,14.46
2019-05-22T19:30:20.717Z,14.47
2019-05-22T19:32:49.605Z,14.42
2019-05-22T19:35:18.358Z,14.26
2019-05-22T19:37:47.667Z,14.01
2019-05-22T19:40:17.558Z,13.69
2019-05-22T19:42:46.269Z,13.30
2019-05-22T19:45:16.653Z,12.94
2019-05-22T19:47:50.189Z,12.83
2019-05-22T19:50:23.085Z,12.92
2019-05-22T19:52:55.677Z,12.90
2019-05-22T19:55:25.788Z,12.87
2019-05-22T19:57:55.036Z,13.12
2019-05-22T20:00:25.176Z,13.50
2019-05-22T20:02:54.405Z,13.59
2019-05-22T20:05:24.041Z,13.85
2019-05-22T20:07:53.235Z,13.92
2019-05-22T20:10:22.069Z,13.97
2019-05-22T20:12:51.325Z,13.98
2019-05-22T20:15:20.480Z,13.84
2019-05-22T20:17:49.255Z,13.70
2019-05-22T20:20:19.295Z,13.69
2019-05-22T20:22:48.076Z,13.49
2019-05-22T20:25:17.161Z,13.32
2019-05-22T20:27:45.977Z,13.11
2019-05-22T20:30:15.780Z,13.04
2019-05-22T20:32:45.030Z,13.12
2019-05-22T20:35:13.801Z,13.01
2019-05-22T20:37:45.165Z,12.83
2019-05-22T20:40:14.279Z,12.72
2019-05-22T20:42:44.367Z,12.79
2019-05-22T20:45:15.146Z,12.84
2019-05-22T20:47:46.116Z,12.88
2019-05-22T20:50:17.099Z,12.91
2019-05-22T20:52:46.002Z,13.06
2019-05-22T20:55:16.650Z,13.08
2019-05-22T20:57:45.382Z,13.00
2019-05-22T21:00:16.935Z,12.86
2019-05-22T21:02:46.574Z,12.66
2019-05-22T21:05:15.792Z,12.51
2019-05-22T21:07:49.827Z,12.44
2019-05-22T21:10:19.910Z,12.35
2019-05-22T21:12:48.608Z,12.21
2019-05-22T21:15:18.206Z,12.08
2019-05-22T21:17:47.351Z,11.79
2019-05-22T21:20:18.595Z,11.53
2019-05-22T21:22:47.229Z,11.38
2019-05-22T21:25:17.025Z,11.45
2019-05-22T21:27:45.748Z,11.50
2019-05-22T21:30:14.975Z,11.33
2019-05-22T21:32:44.207Z,11.16
2019-05-22T21:35:13.999Z,10.91
2019-05-22T21:37:42.715Z,10.63
2019-05-22T21:40:11.951Z,10.33
2019-05-22T21:42:41.812Z,10.17
2019-05-22T21:45:11.244Z,10.03
2019-05-22T21:47:41.510Z,9.89
2019-05-22T21:50:11.093Z,9.81
2019-05-22T21:52:40.163Z,9.83
2019-05-22T21:55:09.452Z,9.84
2019-05-22T21:57:38.961Z,9.77
2019-05-22T22:00:11.116Z,9.60
2019-05-22T22:02:44.350Z,9.50
2019-05-22T22:05:13.734Z,9.44
2019-05-22T22:07:43.854Z,9.40
2019-05-22T22:10:15.277Z,9.28
2019-05-22T22:12:44.374Z,9.17
2019-05-22T22:15:15.169Z,9.11
2019-05-22T22:17:43.881Z,9.14
2019-05-22T22:20:13.020Z,9.46
2019-05-22T22:22:41.750Z,9.84
2019-05-22T22:25:11.108Z,9.99
2019-05-22T22:27:40.466Z,10.03
2019-05-22T22:30:15.643Z,9.90
2019-05-22T22:32:45.409Z,9.72
2019-05-22T22:35:16.405Z,9.51
2019-05-22T22:37:46.396Z,9.30
2019-05-22T22:40:17.742Z,9.13
2019-05-22T22:42:48.736Z,8.94
2019-05-22T22:45:24.433Z,8.83
2019-05-22T22:47:54.189Z,8.69
2019-05-22T22:50:23.323Z,8.59
2019-05-22T22:52:52.017Z,8.48
2019-05-22T22:55:22.277Z,8.40
2019-05-22T22:57:52.117Z,8.38
2019-05-22T23:00:27.132Z,8.37
2019-05-22T23:02:56.901Z,8.28
2019-05-22T23:05:25.582Z,8.17
2019-05-22T23:07:54.948Z,8.05
2019-05-22T23:10:25.697Z,7.94
2019-05-22T23:12:54.957Z,7.85
2019-05-22T23:15:25.609Z,7.80
2019-05-22T23:17:55.397Z,7.74
2019-05-22T23:20:23.074Z,7.77
2019-05-22T23:22:50.473Z,7.75
2019-05-22T23:25:19.581Z,7.66
2019-05-22T23:27:48.492Z,7.60
2019-05-22T23:30:18.653Z,7.53
2019-05-22T23:32:47.528Z,7.46
2019-05-22T23:35:17.329Z,7.36
2019-05-22T23:37:46.275Z,7.28
2019-05-22T23:40:19.706Z,7.21
2019-05-22T23:42:49.310Z,7.13
2019-05-22T23:45:20.381Z,7.07
2019-05-22T23:48:14.245Z,7.02
2019-05-22T23:50:44.663Z,6.96
2019-05-22T23:53:13.431Z,6.96
2019-05-22T23:55:43.011Z,6.98
2019-05-22T23:58:14.292Z,6.99
